Time;durP1;ratioP1;P1;durP2;ratioP2;P2;SDS_P1;SDS_P2;PMS_P1;PMS_P2;Temp;Humidity;BMP_temperature;BMP_pressure;BME280_temperature;BME280_humidity;BME280_pressure;Samples;Min_cycle;Max_cycle;Signal;HPM_P1;HPM_P2
2023/12/11 17:26:13;;;;;;;;;1.33;1.00;;;;;20.37;49.44;100802.63;5481134;23;46794;-75
2023/12/11 17:28:39;;;;;;;;;0.33;0.33;;;;;20.31;49.55;100788.25;4916228;28;45552;-73
2023/12/11 17:31:04;;;;;;;;;0.67;0.67;;;;;20.33;49.34;100790.72;4918347;28;47315;-72
2023/12/11 17:33:29;;;;;;;;;2.33;1.00;;;;;20.36;49.66;100793.84;4918122;28;46511;-72
2023/12/11 17:35:55;;;;;;;;;0.67;0.33;;;;;20.41;49.52;100790.69;4918241;28;61924;-73
2023/12/11 17:38:20;;;;;;;;;2.00;0.67;;;;;20.36;49.41;100779.81;4918911;28;45415;-76
2023/12/11 17:40:46;;;;;;;;;1.67;0.67;;;;;20.46;49.47;100785.72;4919094;28;45270;-75
2023/12/11 17:43:11;;;;;;;;;0.00;0.00;;;;;20.46;49.48;100782.25;4918516;28;45375;-75
2023/12/11 17:45:36;;;;;;;;;2.00;2.00;;;;;20.37;49.23;100768.25;4918707;28;45415;-75
2023/12/11 17:48:03;;;;;;;;;0.67;0.67;;;;;20.39;49.90;100777.66;4918935;28;45296;-74
2023/12/11 17:50:29;;;;;;;;;0.67;0.67;;;;;20.37;49.62;100769.09;4918980;28;45560;-75
2023/12/11 17:52:54;;;;;;;;;1.00;1.00;;;;;20.45;49.31;100786.75;4918541;28;46262;-75
2023/12/11 17:55:19;;;;;;;;;0.33;0.33;;;;;20.35;49.64;100776.34;4918797;28;45344;-75
2023/12/11 17:57:45;;;;;;;;;2.67;2.33;;;;;20.47;49.66;100797.13;4918524;28;45279;-74
2023/12/11 18:00:11;;;;;;;;;1.67;1.67;;;;;20.45;49.86;100794.66;4918818;28;45454;-74
2023/12/11 18:02:36;;;;;;;;;1.00;1.00;;;;;20.23;49.34;100753.94;4930135;28;47086;-74
2023/12/11 18:05:03;;;;;;;;;1.33;1.33;;;;;20.43;49.02;100787.91;4914139;28;45316;-75
2023/12/11 18:07:28;;;;;;;;;1.33;1.00;;;;;20.46;49.30;100793.66;4899736;28;45446;-75
2023/12/11 18:09:54;;;;;;;;;1.33;0.67;;;;;20.43;49.23;100786.06;4899469;28;45340;-75
2023/12/11 18:12:19;;;;;;;;;1.67;0.33;;;;;20.37;49.31;100769.09;4899002;28;46448;-74
2023/12/11 18:14:44;;;;;;;;;1.00;1.00;;;;;20.38;49.33;100765.44;4899303;28;49469;-75
2023/12/11 18:17:13;;;;;;;;;3.00;1.67;;;;;20.47;49.24;100786.56;4899360;28;45412;-75
2023/12/11 18:19:41;;;;;;;;;2.00;1.33;;;;;20.43;49.41;100786.06;4899550;28;45410;-75
2023/12/11 18:22:06;;;;;;;;;2.67;0.67;;;;;20.46;49.18;100785.72;4898538;28;46346;-75
2023/12/11 18:24:31;;;;;;;;;1.00;0.67;;;;;20.44;49.25;100785.06;4899326;28;45420;-75
2023/12/11 18:26:57;;;;;;;;;1.33;1.33;;;;;20.44;49.56;100787.72;4898191;29;58216;-75
2023/12/11 18:29:22;;;;;;;;;3.33;1.67;;;;;20.39;49.39;100768.91;4908959;28;45475;-75
2023/12/11 18:31:47;;;;;;;;;3.33;1.00;;;;;20.44;49.67;100782.44;4918097;28;52230;-75
2023/12/11 18:34:13;;;;;;;;;3.00;1.33;;;;;20.44;49.57;100782.44;4918148;28;45265;-76
2023/12/11 18:36:41;;;;;;;;;1.00;1.00;;;;;20.33;49.39;100759.84;4918243;28;45705;-75
2023/12/11 18:39:13;;;;;;;;;3.67;1.00;;;;;20.35;49.43;100768.41;4918241;28;45379;-75
2023/12/11 18:41:42;;;;;;;;;0.67;0.67;;;;;20.43;49.35;100787.91;4917515;28;46157;-75
2023/12/11 18:44:08;;;;;;;;;3.33;1.67;;;;;20.42;49.19;100786.25;4918096;28;45294;-75
2023/12/11 18:46:34;;;;;;;;;1.67;0.33;;;;;20.42;49.41;100787.06;4918054;28;45436;-75
2023/12/11 18:48:59;;;;;;;;;1.67;1.67;;;;;20.42;49.52;100788.88;4918191;28;45527;-75
2023/12/11 18:51:25;;;;;;;;;2.33;1.00;;;;;20.40;49.22;100789.06;4918037;28;46094;-75
2023/12/11 18:53:50;;;;;;;;;4.33;1.33;;;;;20.29;49.18;100784.97;4917893;28;45236;-75
2023/12/11 18:56:20;;;;;;;;;4.00;1.00;;;;;20.42;49.56;100804.75;4917671;28;45322;-75
2023/12/11 18:58:46;;;;;;;;;2.00;1.67;;;;;20.32;49.06;100791.72;4917988;28;45359;-76
2023/12/11 19:01:12;;;;;;;;;3.33;1.67;;;;;20.41;49.31;100801.28;4917681;28;46261;-75
2023/12/11 19:03:37;;;;;;;;;2.33;2.33;;;;;20.35;49.62;100802.78;4917707;28;45544;-75
2023/12/11 19:06:03;;;;;;;;;3.67;3.33;;;;;20.41;49.20;100801.28;4917967;28;45335;-75
2023/12/11 19:08:29;;;;;;;;;1.67;1.67;;;;;20.33;49.54;100780.16;4917842;28;45351;-75
2023/12/11 19:10:54;;;;;;;;;3.67;2.00;;;;;20.35;49.04;100791.41;4917234;28;45448;-75
2023/12/11 19:13:19;;;;;;;;;1.67;1.67;;;;;20.17;48.99;100766.00;4917853;28;45308;-75
2023/12/11 19:15:45;;;;;;;;;2.00;1.67;;;;;20.44;49.04;100813.31;4916540;28;45311;-75
2023/12/11 19:18:10;;;;;;;;;2.00;1.67;;;;;20.34;49.33;100781.81;4917796;28;45400;-75
2023/12/11 19:20:35;;;;;;;;;3.33;2.67;;;;;20.16;49.22;100759.91;4917629;28;47285;-75
2023/12/11 19:23:01;;;;;;;;;1.00;1.00;;;;;20.34;49.24;100795.03;4917710;28;45406;-75
2023/12/11 19:25:26;;;;;;;;;3.33;3.33;;;;;20.40;49.52;100786.44;4917213;28;45576;-75
2023/12/11 19:27:51;;;;;;;;;4.00;2.33;;;;;20.35;49.43;100778.97;4917766;28;45436;-75
2023/12/11 19:30:17;;;;;;;;;3.00;2.00;;;;;20.39;49.14;100785.59;4917390;28;45448;-75
2023/12/11 19:32:42;;;;;;;;;2.00;2.00;;;;;20.40;49.38;100784.59;4917841;28;45419;-75
2023/12/11 19:35:07;;;;;;;;;2.67;2.67;;;;;20.40;49.21;100776.66;4920453;28;45408;-75
2023/12/11 19:37:33;;;;;;;;;2.00;1.67;;;;;20.42;49.45;100788.88;4920941;28;45339;-75
2023/12/11 19:39:58;;;;;;;;;2.67;1.00;;;;;20.39;49.35;100793.53;4935220;28;46958;-75
2023/12/11 19:42:23;;;;;;;;;2.67;2.00;;;;;20.37;49.36;100807.91;4920609;28;46844;-75
2023/12/11 19:44:48;;;;;;;;;3.33;2.33;;;;;20.42;49.25;100807.38;4920985;28;45326;-75
2023/12/11 19:47:14;;;;;;;;;4.00;2.33;;;;;20.42;48.98;100799.47;4920616;28;45560;-75
2023/12/11 19:49:39;;;;;;;;;3.67;1.67;;;;;20.42;49.21;100795.00;4920495;28;46917;-75
2023/12/11 19:52:05;;;;;;;;;4.67;2.67;;;;;20.20;48.83;100764.84;4920245;28;54054;-74
2023/12/11 19:54:30;;;;;;;;;1.33;1.33;;;;;20.32;49.35;100789.09;4920241;28;45419;-75
2023/12/11 19:56:55;;;;;;;;;4.67;1.67;;;;;20.42;49.25;100804.75;4920453;28;45499;-75
2023/12/11 19:59:21;;;;;;;;;2.67;2.67;;;;;20.38;49.25;100789.22;4920175;28;52510;-75
2023/12/11 20:01:46;;;;;;;;;2.00;2.00;;;;;20.42;49.52;100788.88;4919854;28;61132;-75
2023/12/11 20:04:12;;;;;;;;;3.33;2.00;;;;;20.39;48.99;100788.25;4935293;28;45424;-75
2023/12/11 20:06:39;;;;;;;;;2.00;2.00;;;;;20.23;49.12;100746.84;4920380;28;45260;-76
2023/12/11 20:09:04;;;;;;;;;3.00;3.00;;;;;20.28;49.37;100759.53;4919908;28;47221;-75
2023/12/11 20:11:29;;;;;;;;;4.00;2.67;;;;;20.34;49.36;100780.00;4918912;28;45435;-75
2023/12/11 20:13:55;;;;;;;;;5.67;2.33;;;;;20.34;49.09;100790.56;4920287;28;45249;-75
2023/12/11 20:16:20;;;;;;;;;4.00;2.33;;;;;20.37;49.25;100792.03;4920262;28;45461;-75
2023/12/11 20:18:46;;;;;;;;;5.00;1.67;;;;;20.34;49.35;100780.00;4920096;28;47420;-75
2023/12/11 20:21:11;;;;;;;;;4.67;3.33;;;;;20.39;49.02;100772.38;4920113;28;45338;-75
2023/12/11 20:23:36;;;;;;;;;1.67;1.67;;;;;20.38;48.96;100767.25;4919811;28;45401;-75
2023/12/11 20:26:02;;;;;;;;;2.33;2.00;;;;;20.38;48.89;100773.38;4919985;28;45264;-75
2023/12/11 20:28:28;;;;;;;;;5.00;2.00;;;;;20.42;49.16;100786.25;4919945;28;47342;-75
2023/12/11 20:30:54;;;;;;;;;5.00;2.00;;;;;20.28;48.95;100762.16;4919761;28;45415;-75
2023/12/11 20:33:20;;;;;;;;;4.33;3.67;;;;;20.29;49.21;100762.03;4919875;28;45310;-76
2023/12/11 20:35:45;;;;;;;;;2.67;2.67;;;;;20.31;49.14;100775.03;4919856;28;45369;-75
2023/12/11 20:38:11;;;;;;;;;3.67;1.67;;;;;20.39;49.10;100795.34;4919367;28;45902;-75
2023/12/11 20:40:37;;;;;;;;;4.00;2.33;;;;;20.37;49.45;100794.69;4919804;28;45393;-75
2023/12/11 20:43:09;;;;;;;;;5.33;2.67;;;;;20.38;49.16;100783.94;4919864;28;45303;-75
2023/12/11 20:45:34;;;;;;;;;2.33;2.33;;;;;20.40;49.04;100787.22;4919006;28;45479;-75
2023/12/11 20:48:00;;;;;;;;;4.00;3.67;;;;;20.28;49.32;100770.94;4919546;28;45993;-75
2023/12/11 20:50:26;;;;;;;;;4.00;2.67;;;;;20.37;49.22;100779.66;4919656;28;45335;-76
2023/12/11 20:52:54;;;;;;;;;4.67;3.67;;;;;20.37;49.25;100776.19;4919514;28;45415;-72
2023/12/11 20:55:19;;;;;;;;;5.33;3.67;;;;;20.35;49.15;100772.91;4919725;28;45380;-75
2023/12/11 20:57:45;;;;;;;;;2.33;1.67;;;;;20.38;48.90;100788.38;4919360;28;45463;-75
2023/12/11 21:00:11;;;;;;;;;3.00;2.33;;;;;20.37;49.31;100779.66;4919284;28;52051;-77
2023/12/11 21:02:37;;;;;;;;;2.33;2.33;;;;;20.42;49.03;100780.97;4919771;28;45291;-78
2023/12/11 21:05:02;;;;;;;;;2.33;2.33;;;;;20.39;48.79;100777.66;4919531;28;45224;-73
2023/12/11 21:07:27;;;;;;;;;3.00;2.00;;;;;20.42;48.94;100775.66;4919006;28;46135;-74
2023/12/11 21:09:53;;;;;;;;;2.33;2.33;;;;;20.42;49.26;100778.31;4919514;28;45284;-74
2023/12/11 21:12:18;;;;;;;;;3.00;2.67;;;;;20.25;49.06;100752.78;4919386;28;45363;-74
2023/12/11 21:14:43;;;;;;;;;3.00;3.00;;;;;20.42;49.48;100779.16;4919159;28;45279;-74
2023/12/11 21:17:09;;;;;;;;;3.67;3.67;;;;;20.42;49.12;100791.53;4917826;28;46158;-74
2023/12/11 21:19:34;;;;;;;;;4.00;2.67;;;;;20.41;49.22;100780.13;4918825;28;45370;-72
2023/12/11 21:21:59;;;;;;;;;2.00;0.67;;;;;20.39;50.15;100780.31;4919429;28;45352;-73
2023/12/11 21:24:25;;;;;;;;;2.67;2.00;;;;;20.46;49.89;100779.59;4919151;28;45431;-72
2023/12/11 21:26:50;;;;;;;;;4.00;3.00;;;;;20.36;49.90;100756.03;4918676;28;45476;-72
2023/12/11 21:29:16;;;;;;;;;3.33;3.33;;;;;20.49;50.44;100784.56;4919153;28;45482;-72
2023/12/11 21:31:41;;;;;;;;;5.67;3.00;;;;;20.48;50.08;100782.94;4934008;28;45407;-71
2023/12/11 21:34:06;;;;;;;;;4.33;1.67;;;;;20.43;50.25;100769.41;4918898;28;45418;-73
2023/12/11 21:36:33;;;;;;;;;2.67;2.67;;;;;20.54;50.21;100774.28;4918719;28;45391;-73
2023/12/11 21:38:59;;;;;;;;;3.67;2.67;;;;;20.50;50.32;100759.78;4918032;28;45543;-75
2023/12/11 21:41:24;;;;;;;;;4.33;4.33;;;;;20.53;50.37;100769.19;4918222;28;45363;-76
2023/12/11 21:43:51;;;;;;;;;3.67;3.00;;;;;20.56;50.72;100776.75;4918218;28;45415;-74
2023/12/11 21:46:17;;;;;;;;;3.33;2.00;;;;;20.56;51.33;100759.09;4916785;28;46061;-72
2023/12/11 21:48:44;;;;;;;;;5.67;2.00;;;;;20.57;50.79;100757.28;4916241;28;45391;-72
2023/12/11 21:51:12;;;;;;;;;4.00;3.00;;;;;20.58;51.29;100743.06;4914290;28;45556;-72
2023/12/11 21:53:37;;;;;;;;;3.00;2.00;;;;;20.60;51.48;100746.34;4916423;28;45423;-77
2023/12/11 21:56:03;;;;;;;;;2.00;2.00;;;;;20.60;51.14;100757.75;4918202;28;45434;-75
2023/12/11 21:58:28;;;;;;;;;2.67;2.67;;;;;20.60;51.48;100757.75;4932198;28;45859;-70
2023/12/11 22:00:55;;;;;;;;;5.67;2.67;;;;;20.62;51.52;100749.66;4918249;28;54141;-72
2023/12/11 22:03:20;;;;;;;;;4.67;2.00;;;;;20.58;51.48;100724.56;4917703;28;45465;-72
2023/12/11 22:05:46;;;;;;;;;6.33;2.00;;;;;20.63;51.73;100723.03;4917623;28;46202;-69
2023/12/11 22:08:12;;;;;;;;;5.00;2.67;;;;;20.53;51.20;100711.88;4917934;28;45344;-71
2023/12/11 22:10:41;;;;;;;;;5.67;2.33;;;;;20.58;51.32;100720.09;4917971;28;45484;-72
2023/12/11 22:13:06;;;;;;;;;4.67;3.00;;;;;20.51;51.77;100712.03;4917751;28;45415;-72
2023/12/11 22:15:32;;;;;;;;;1.33;1.33;;;;;20.60;51.43;100718.09;4931996;28;45545;-71
2023/12/11 22:17:57;;;;;;;;;2.33;1.67;;;;;20.63;51.28;100723.03;4917420;28;45403;-71
2023/12/11 22:20:23;;;;;;;;;5.33;2.67;;;;;20.66;51.50;100715.78;4918238;28;45274;-71
2023/12/11 22:22:50;;;;;;;;;3.67;2.67;;;;;20.70;51.77;100727.63;4918283;28;45399;-70
2023/12/11 22:25:19;;;;;;;;;3.67;3.00;;;;;20.71;51.62;100721.34;4917904;28;46156;-70
2023/12/11 22:27:44;;;;;;;;;6.33;3.67;;;;;20.71;51.62;100724.00;4918221;28;45370;-72
2023/12/11 22:30:11;;;;;;;;;6.00;4.67;;;;;20.72;51.36;100723.00;4918212;28;45442;-76
2023/12/11 22:32:37;;;;;;;;;6.33;3.33;;;;;20.51;51.36;100675.03;4918047;28;45386;-75
2023/12/11 22:35:02;;;;;;;;;5.00;3.00;;;;;20.73;51.65;100714.06;4918002;28;46161;-74
2023/12/11 22:37:28;;;;;;;;;3.00;3.00;;;;;20.74;51.02;100713.88;4918048;28;45399;-72
2023/12/11 22:39:53;;;;;;;;;4.33;3.00;;;;;20.75;51.57;100722.66;4917245;28;45444;-72
2023/12/11 22:42:18;;;;;;;;;3.33;3.33;;;;;20.67;51.34;100696.25;4918397;28;45304;-73
2023/12/11 22:44:44;;;;;;;;;6.00;3.00;;;;;20.74;51.15;100705.94;4918091;28;45885;-73
2023/12/11 22:47:09;;;;;;;;;6.00;3.33;;;;;20.73;51.46;100703.50;4917831;28;45531;-72
2023/12/11 22:49:34;;;;;;;;;2.67;2.67;;;;;20.71;51.51;100697.56;4918203;28;45657;-72
2023/12/11 22:52:00;;;;;;;;;3.33;2.00;;;;;20.72;51.37;100693.91;4917625;28;58866;-72
2023/12/11 22:54:25;;;;;;;;;7.33;4.00;;;;;20.71;51.34;100681.69;4917911;28;46193;-72
2023/12/11 22:56:52;;;;;;;;;5.00;3.00;;;;;20.70;51.43;100683.50;4917942;28;45237;-72
2023/12/11 22:59:17;;;;;;;;;3.33;3.00;;;;;20.69;50.87;100692.44;4918158;28;45296;-72
2023/12/11 23:01:43;;;;;;;;;6.00;4.00;;;;;20.69;51.04;100700.38;4917668;28;45437;-72
2023/12/11 23:04:08;;;;;;;;;4.00;4.00;;;;;20.68;51.23;100697.91;4917965;28;45334;-72
2023/12/11 23:06:34;;;;;;;;;2.00;2.00;;;;;20.66;51.21;100700.72;4917956;28;45319;-72
2023/12/11 23:08:59;;;;;;;;;5.33;3.67;;;;;20.66;50.84;100694.63;4919528;28;45532;-72
2023/12/11 23:11:24;;;;;;;;;3.33;3.33;;;;;20.66;51.18;100697.25;4921300;28;45422;-72
2023/12/11 23:13:49;;;;;;;;;5.67;3.00;;;;;20.57;50.83;100683.25;4921217;28;46112;-72
2023/12/11 23:16:15;;;;;;;;;4.67;2.00;;;;;20.54;51.09;100692.34;4920746;28;45364;-72
2023/12/11 23:18:40;;;;;;;;;3.67;2.33;;;;;20.56;51.17;100687.72;4921298;28;45464;-72
2023/12/11 23:21:15;;;;;;;;;4.67;4.00;;;;;20.63;51.28;100701.88;4921253;28;45359;-72
2023/12/11 23:23:40;;;;;;;;;4.00;3.00;;;;;20.62;50.74;100694.97;4920799;28;47094;-72
2023/12/11 23:26:06;;;;;;;;;3.33;3.33;;;;;20.60;50.97;100690.84;4920264;28;57851;-72
2023/12/11 23:28:31;;;;;;;;;3.33;3.33;;;;;20.60;51.19;100691.69;4921231;28;45430;-73
2023/12/11 23:30:56;;;;;;;;;5.33;4.33;;;;;20.56;50.72;100697.47;4920262;28;50542;-72
2023/12/11 23:33:22;;;;;;;;;2.67;2.67;;;;;20.56;50.70;100678.97;4920927;28;46888;-73
2023/12/11 23:35:47;;;;;;;;;5.67;3.33;;;;;20.56;50.61;100674.50;4919494;28;45906;-72
2023/12/11 23:38:12;;;;;;;;;5.33;4.67;;;;;20.58;50.78;100677.78;4920985;28;45380;-73
2023/12/11 23:40:37;;;;;;;;;4.00;2.00;;;;;20.58;50.68;100671.69;4935729;28;45526;-72
2023/12/11 23:43:03;;;;;;;;;5.00;2.67;;;;;20.48;50.61;100651.59;4920514;28;51829;-72
2023/12/11 23:45:28;;;;;;;;;3.33;3.33;;;;;20.56;50.90;100666.56;4920460;28;45458;-73
2023/12/11 23:47:53;;;;;;;;;5.00;3.00;;;;;20.56;50.71;100663.94;4920764;28;45431;-72
2023/12/11 23:50:19;;;;;;;;;4.33;3.00;;;;;20.48;50.84;100653.44;4920839;28;45303;-72
2023/12/11 23:52:44;;;;;;;;;6.00;3.33;;;;;20.50;50.70;100649.63;4920572;28;47017;-72
2023/12/11 23:55:09;;;;;;;;;3.33;3.00;;;;;20.55;50.97;100648.25;4920557;28;45389;-72
2023/12/11 23:57:35;;;;;;;;;4.00;4.00;;;;;20.48;50.49;100642.84;4920631;28;45825;-72
